Time;durP1;ratioP1;P1;durP2;ratioP2;P2;SDS_P1;SDS_P2;PMS_P1;PMS_P2;Temp;Humidity;BMP_temperature;BMP_pressure;BME280_temperature;BME280_humidity;BME280_pressure;Samples;Min_cycle;Max_cycle;Signal;HPM_P1;HPM_P2
2021/12/10 00:02:11;;;;;;;1.67;1.57;;;4.20;99.90;3.90;99374.00;;;;5077548;28;20188;-79
2021/12/10 00:04:41;;;;;;;3.20;1.33;;;4.30;99.90;3.80;99365.00;;;;5060912;28;20237;-78
2021/12/10 00:07:22;;;;;;;2.30;2.10;;;4.20;99.90;3.80;99362.00;;;;5077750;28;20165;-78
2021/12/10 00:09:58;;;;;;;1.63;1.13;;;4.30;99.90;4.00;99337.00;;;;5077839;28;20179;-77
2021/12/10 00:12:40;;;;;;;1.10;1.00;;;4.30;99.90;3.90;99334.00;;;;5060680;28;20216;-77
2021/12/10 00:15:12;;;;;;;8.13;3.13;;;4.30;99.90;4.00;99325.00;;;;5077549;28;20210;-77
2021/12/10 00:17:38;;;;;;;1.03;1.03;;;4.30;99.90;4.20;99325.00;;;;5077639;28;20186;-77
2021/12/10 00:20:13;;;;;;;2.60;2.40;;;4.30;99.90;4.20;99295.00;;;;5077549;28;20176;-77
2021/12/10 00:22:53;;;;;;;2.87;1.93;;;4.40;99.90;4.10;99258.00;;;;5077375;28;20238;-77
2021/12/10 00:25:37;;;;;;;3.33;2.13;;;4.40;99.90;4.10;99288.00;;;;5060809;28;20188;-77
2021/12/10 00:28:28;;;;;;;0.90;0.90;;;4.40;99.90;4.10;99264.00;;;;5095517;28;20681;-79
2021/12/10 00:31:07;;;;;;;0.90;0.90;;;4.40;99.90;4.10;99263.00;;;;5076850;28;20624;-80
2021/12/10 00:33:41;;;;;;;1.17;1.10;;;4.50;99.90;4.20;99265.00;;;;5078187;28;20188;-80
2021/12/10 00:36:08;;;;;;;1.27;1.17;;;4.50;99.90;4.30;99261.00;;;;5077081;28;20184;-80
2021/12/10 00:38:39;;;;;;;2.33;2.13;;;4.50;99.90;4.20;99250.00;;;;5060438;28;20184;-79
2021/12/10 00:41:10;;;;;;;1.50;1.40;;;4.50;99.90;4.10;99249.00;;;;5076950;28;20230;-80
2021/12/10 00:43:42;;;;;;;0.80;0.80;;;4.50;99.90;4.60;99231.00;;;;5077034;28;20586;-80
2021/12/10 00:46:11;;;;;;;1.20;1.13;;;4.60;99.90;4.20;99233.00;;;;5077203;28;20233;-78
2021/12/10 00:48:42;;;;;;;0.73;0.73;;;4.60;99.90;4.30;99224.00;;;;5093990;28;20185;-78
2021/12/10 00:51:15;;;;;;;1.80;0.70;;;4.60;99.90;4.40;99224.00;;;;5076664;28;20658;-77
2021/12/10 00:53:47;;;;;;;1.77;1.47;;;4.70;99.90;4.50;99207.00;;;;5059862;28;20187;-78
2021/12/10 00:56:16;;;;;;;2.83;1.53;;;4.80;99.90;4.30;99199.00;;;;5059285;28;20273;-78
2021/12/10 00:58:48;;;;;;;3.83;2.47;;;4.70;99.90;4.50;99196.00;;;;5076779;28;20189;-78
2021/12/10 01:01:25;;;;;;;1.37;1.13;;;4.80;99.90;4.30;99158.00;;;;5060156;28;20222;-79
2021/12/10 01:04:32;;;;;;;1.60;0.67;;;4.80;99.90;4.30;99196.00;;;;5077050;28;20173;-79
2021/12/10 01:07:07;;;;;;;1.30;1.20;;;4.70;99.90;4.20;99183.00;;;;5093317;28;20626;-80
2021/12/10 01:09:51;;;;;;;0.73;0.73;;;4.70;99.90;4.60;99140.00;;;;5090141;28;20745;-80
2021/12/10 01:12:28;;;;;;;2.77;1.60;;;4.80;99.90;4.70;99124.00;;;;5094537;28;20208;-79
2021/12/10 01:15:49;;;;;;;3.17;1.83;;;4.80;99.90;4.70;99189.00;;;;5076256;28;20259;-78
2021/12/10 01:24:35;;;;;;;0.70;0.63;;;5.10;99.90;4.60;99159.00;;;;5093941;28;20243;-78
2021/12/10 01:27:24;;;;;;;3.33;1.57;;;5.00;99.90;4.80;99142.00;;;;5061442;28;20189;-78
2021/12/10 01:29:56;;;;;;;0.90;0.87;;;5.00;99.90;4.70;99096.00;;;;5077164;28;20543;-78
2021/12/10 01:32:33;;;;;;;1.77;1.23;;;5.10;99.90;4.70;99139.00;;;;5076931;28;20222;-79
2021/12/10 01:35:02;;;;;;;4.17;2.93;;;5.10;99.90;4.70;99095.00;;;;5076615;28;20169;-79
2021/12/10 01:37:32;;;;;;;3.23;1.50;;;5.10;99.90;4.70;99121.00;;;;5076392;28;20188;-79
2021/12/10 01:39:58;;;;;;;0.50;0.50;;;5.10;99.90;4.50;99111.00;;;;5076215;28;20625;-78
2021/12/10 01:44:58;;;;;;;0.90;0.73;;;5.00;99.90;4.80;99093.00;;;;5076037;28;20702;-79
2021/12/10 01:47:30;;;;;;;1.57;1.47;;;5.10;99.90;4.80;99095.00;;;;5076084;28;20648;-79
2021/12/10 01:50:06;;;;;;;0.50;0.50;;;5.20;99.90;5.00;99088.00;;;;5059324;28;20176;-78
2021/12/10 01:52:35;;;;;;;1.23;0.90;;;5.20;99.90;4.90;99078.00;;;;5075362;28;20224;-78
2021/12/10 01:55:07;;;;;;;2.37;1.13;;;5.20;99.90;4.70;99025.00;;;;5075450;28;20299;-78
2021/12/10 01:57:39;;;;;;;2.13;1.40;;;5.10;99.90;4.80;99071.00;;;;5075994;28;20685;-78
2021/12/10 02:00:11;;;;;;;1.77;1.13;;;5.20;99.90;4.80;99042.00;;;;5058902;28;20185;-78
2021/12/10 02:02:43;;;;;;;1.07;0.97;;;5.20;99.90;5.00;99076.00;;;;4725511;28;10000912;-79
2021/12/10 02:05:16;;;;;;;0.87;0.53;;;5.20;99.90;4.70;99057.00;;;;5058738;28;20181;-79
2021/12/10 02:07:48;;;;;;;0.70;0.70;;;5.20;99.90;4.70;99066.00;;;;5075440;28;20575;-81
2021/12/10 02:10:19;;;;;;;3.43;1.77;;;5.20;99.90;4.80;99055.00;;;;5059390;28;20215;-80
2021/12/10 02:12:50;;;;;;;1.47;1.33;;;5.20;99.90;4.90;99052.00;;;;5058797;28;20205;-79
2021/12/10 02:15:26;;;;;;;0.50;0.50;;;5.20;99.90;4.90;99003.00;;;;5093478;28;20178;-79
2021/12/10 02:17:57;;;;;;;1.63;1.00;;;5.20;99.90;4.90;99047.00;;;;5093426;28;20239;-79
2021/12/10 02:20:46;;;;;;;0.73;0.73;;;5.20;99.90;4.90;99014.00;;;;5075779;28;20181;-79
2021/12/10 02:23:12;;;;;;;0.77;0.73;;;5.20;99.90;4.70;98982.00;;;;5075068;28;20247;-78
2021/12/10 02:25:45;;;;;;;0.60;0.60;;;5.20;99.90;5.20;98986.00;;;;5075651;28;20696;-78
2021/12/10 02:28:19;;;;;;;1.30;1.07;;;5.20;99.90;4.90;99007.00;;;;5075602;28;20643;-78
2021/12/10 02:30:50;;;;;;;0.70;0.70;;;5.20;99.90;5.20;99016.00;;;;5072137;28;20201;-78
2021/12/10 02:33:23;;;;;;;0.63;0.50;;;5.30;99.90;4.90;99004.00;;;;5055460;28;20213;-78
2021/12/10 02:35:56;;;;;;;0.57;0.57;;;5.30;99.90;5.10;99009.00;;;;5055145;28;20267;-78
2021/12/10 02:38:27;;;;;;;0.50;0.50;;;5.40;99.90;5.40;98996.00;;;;5073143;28;20181;-77
2021/12/10 02:40:58;;;;;;;0.73;0.73;;;5.40;99.90;4.90;98994.00;;;;5055379;28;20167;-76
2021/12/10 02:43:30;;;;;;;2.03;0.63;;;5.40;99.90;5.20;98981.00;;;;5055670;28;20265;-77
2021/12/10 02:46:04;;;;;;;1.70;0.60;;;5.40;99.90;4.80;98963.00;;;;5038593;28;20179;-77
2021/12/10 02:48:38;;;;;;;0.50;0.50;;;5.30;99.90;4.90;98974.00;;;;5055513;28;20184;-78
2021/12/10 02:51:09;;;;;;;1.73;1.63;;;5.20;99.90;4.80;98968.00;;;;5072525;28;20174;-82
2021/12/10 02:53:43;;;;;;;1.47;0.93;;;5.20;99.90;4.90;98929.00;;;;5073094;28;20214;-80
2021/12/10 02:56:18;;;;;;;1.23;0.60;;;5.20;99.90;4.80;98965.00;;;;5055531;28;20272;-80
2021/12/10 02:58:54;;;;;;;0.40;0.40;;;5.20;99.90;4.90;98963.00;;;;5054931;28;20206;-75
2021/12/10 03:01:33;;;;;;;0.70;0.70;;;5.20;99.90;4.90;98971.00;;;;5055051;28;20656;-76
2021/12/10 03:04:07;;;;;;;2.13;1.53;;;5.20;99.90;4.90;98961.00;;;;5054011;28;20177;-76
2021/12/10 03:06:49;;;;;;;0.63;0.60;;;5.20;99.90;4.90;98957.00;;;;5073026;28;20537;-77
2021/12/10 03:09:23;;;;;;;1.33;0.90;;;5.30;99.90;5.00;98948.00;;;;5055280;28;20178;-78
2021/12/10 03:11:59;;;;;;;0.40;0.40;;;5.20;99.90;4.90;98929.00;;;;5072723;28;20232;-79
2021/12/10 03:14:33;;;;;;;0.60;0.50;;;5.20;99.90;5.10;98931.00;;;;5055766;28;20697;-80
2021/12/10 03:17:06;;;;;;;0.43;0.43;;;5.20;99.90;5.00;98939.00;;;;5054939;28;20192;-80
2021/12/10 03:19:37;;;;;;;0.40;0.40;;;5.30;99.90;4.90;98913.00;;;;5057399;28;20243;-80
2021/12/10 03:22:06;;;;;;;2.00;0.60;;;5.20;99.90;4.80;98923.00;;;;5059161;28;20173;-80
2021/12/10 03:24:33;;;;;;;0.40;0.40;;;5.20;99.90;5.10;98905.00;;;;5058609;28;20185;-80
2021/12/10 03:27:03;;;;;;;0.60;0.60;;;5.20;99.90;4.90;98917.00;;;;5042014;28;20174;-80
2021/12/10 03:29:40;;;;;;;0.47;0.47;;;5.20;99.90;4.60;98904.00;;;;5058542;28;20323;-80
2021/12/10 03:32:29;;;;;;;0.40;0.40;;;5.10;99.90;4.90;98901.00;;;;5074401;28;20217;-80
2021/12/10 03:34:59;;;;;;;0.80;0.60;;;5.10;99.90;4.90;98903.00;;;;5078164;28;20180;-79
2021/12/10 03:37:30;;;;;;;0.40;0.40;;;5.10;99.90;4.90;98846.00;;;;5095531;28;20180;-79
2021/12/10 03:40:05;;;;;;;0.40;0.40;;;5.10;99.90;4.70;98886.00;;;;5061394;28;20229;-77
2021/12/10 03:42:39;;;;;;;1.33;0.60;;;5.00;99.90;4.60;98889.00;;;;5078161;28;20215;-77
2021/12/10 03:45:10;;;;;;;0.60;0.60;;;5.00;99.90;4.90;98883.00;;;;5078206;28;20171;-77
2021/12/10 03:47:42;;;;;;;0.40;0.40;;;5.00;99.90;4.60;98877.00;;;;5078029;28;20176;-79
2021/12/10 03:50:32;;;;;;;0.60;0.60;;;5.00;99.90;4.70;98868.00;;;;5095906;28;20284;-79
2021/12/10 03:53:03;;;;;;;0.73;0.57;;;5.00;99.90;4.50;98859.00;;;;5061322;28;20664;-80
2021/12/10 03:55:30;;;;;;;0.60;0.60;;;4.90;99.90;4.60;98864.00;;;;5061282;28;20180;-80
2021/12/10 03:57:58;;;;;;;0.50;0.50;;;4.90;99.90;4.60;98863.00;;;;5078079;28;20689;-80
2021/12/10 04:00:35;;;;;;;1.77;0.73;;;4.80;99.90;4.30;98840.00;;;;5094695;28;20176;-77
2021/12/10 04:03:07;;;;;;;1.13;0.80;;;4.80;99.90;4.50;98840.00;;;;5077729;28;20184;-79
2021/12/10 04:05:40;;;;;;;0.50;0.50;;;4.80;99.90;4.40;98851.00;;;;5060861;28;20192;-78
2021/12/10 04:08:10;;;;;;;0.40;0.40;;;4.80;99.90;4.50;98843.00;;;;5077476;28;20551;-75
2021/12/10 04:10:42;;;;;;;0.73;0.73;;;4.70;99.90;4.20;98841.00;;;;5077642;28;20279;-75
2021/12/10 04:13:14;;;;;;;0.50;0.50;;;4.70;99.90;4.20;98837.00;;;;5077798;28;20212;-75
2021/12/10 04:15:45;;;;;;;0.50;0.50;;;4.60;99.90;4.30;98843.00;;;;5077525;28;20640;-75
2021/12/10 04:18:20;;;;;;;2.83;2.60;;;4.60;99.90;4.10;98833.00;;;;5077481;28;20209;-75
2021/12/10 04:20:47;;;;;;;0.70;0.70;;;4.50;99.90;4.20;98827.00;;;;5077375;28;20207;-76
2021/12/10 04:23:20;;;;;;;0.50;0.50;;;4.50;99.90;4.40;98833.00;;;;5077623;28;20220;-76
2021/12/10 04:25:52;;;;;;;0.70;0.70;;;4.60;99.90;4.40;98821.00;;;;5077371;28;20177;-75
2021/12/10 04:28:24;;;;;;;0.70;0.70;;;4.70;99.90;4.40;98825.00;;;;5077841;28;20546;-75
2021/12/10 04:30:56;;;;;;;0.60;0.60;;;4.60;99.90;4.20;98816.00;;;;5076615;28;20227;-76
2021/12/10 04:33:30;;;;;;;0.50;0.50;;;4.60;99.90;4.50;98819.00;;;;5077605;28;20220;-75
2021/12/10 04:36:05;;;;;;;0.70;0.70;;;4.60;99.90;4.20;98819.00;;;;5077130;28;20524;-78
2021/12/10 04:38:40;;;;;;;0.50;0.50;;;4.60;99.90;4.30;98803.00;;;;5077565;28;20304;-77
2021/12/10 04:41:11;;;;;;;0.50;0.50;;;4.60;99.90;4.40;98806.00;;;;5094961;28;20180;-79
2021/12/10 04:43:44;;;;;;;0.80;0.80;;;4.60;99.90;4.40;98751.00;;;;5077373;28;20180;-77
2021/12/10 04:46:16;;;;;;;0.77;0.77;;;4.60;99.90;4.20;98798.00;;;;5076690;28;20647;-78
2021/12/10 04:48:49;;;;;;;1.90;0.70;;;4.60;99.90;4.20;98797.00;;;;5077179;28;20517;-78
2021/12/10 04:51:25;;;;;;;3.00;0.93;;;4.50;99.90;4.10;98794.00;;;;5076734;28;20637;-76
2021/12/10 04:53:59;;;;;;;0.50;0.50;;;4.40;99.90;4.00;98788.00;;;;5076877;28;20181;-77
2021/12/10 04:56:31;;;;;;;0.60;0.60;;;4.40;99.90;4.10;98775.00;;;;5076915;28;20192;-77
2021/12/10 04:59:05;;;;;;;3.73;1.17;;;4.40;99.90;4.20;98731.00;;;;5094205;28;20252;-76
2021/12/10 05:01:40;;;;;;;0.60;0.60;;;4.50;99.90;4.20;98768.00;;;;5076423;28;20202;-75
2021/12/10 05:04:10;;;;;;;0.60;0.60;;;4.50;99.90;3.80;98719.00;;;;5076761;28;20191;-74
2021/12/10 05:06:42;;;;;;;0.60;0.60;;;4.30;99.90;3.90;98767.00;;;;5076427;28;20178;-74
2021/12/10 05:09:12;;;;;;;0.70;0.70;;;4.30;99.90;3.90;98720.00;;;;5076817;28;20184;-75
2021/12/10 05:11:43;;;;;;;1.70;0.90;;;4.30;99.90;4.10;98719.00;;;;5076501;28;20296;-76
2021/12/10 05:14:15;;;;;;;0.70;0.70;;;4.30;99.90;3.80;98754.00;;;;5059582;28;20176;-75
2021/12/10 05:16:46;;;;;;;0.60;0.60;;;4.30;99.90;4.00;98746.00;;;;5076433;28;20175;-75
2021/12/10 05:19:25;;;;;;;0.60;0.60;;;4.30;99.90;3.90;98753.00;;;;5094605;28;20187;-76
2021/12/10 05:21:59;;;;;;;0.53;0.53;;;4.30;99.90;3.80;98756.00;;;;5076839;28;20267;-76
2021/12/10 05:24:27;;;;;;;0.77;0.77;;;4.20;99.90;4.00;98752.00;;;;5076904;28;20180;-74
2021/12/10 05:26:55;;;;;;;3.60;0.90;;;4.30;99.90;3.80;98701.00;;;;5060548;28;20180;-74
2021/12/10 05:29:21;;;;;;;0.57;0.57;;;4.20;99.90;3.90;98698.00;;;;5075743;28;20181;-74
2021/12/10 05:31:48;;;;;;;0.70;0.70;;;4.30;99.90;4.00;98733.00;;;;5075745;28;20209;-74
2021/12/10 05:34:19;;;;;;;0.60;0.60;;;4.30;99.90;3.80;98742.00;;;;5075947;28;20518;-74
2021/12/10 05:36:50;;;;;;;0.60;0.60;;;4.20;99.90;3.70;98738.00;;;;5076275;28;20607;-73
2021/12/10 05:39:23;;;;;;;0.67;0.67;;;4.20;99.90;3.80;98716.00;;;;5059160;28;20325;-73
2021/12/10 05:41:51;;;;;;;0.70;0.70;;;4.20;99.90;3.90;98730.00;;;;5075556;28;20281;-75
2021/12/10 05:44:22;;;;;;;0.93;0.93;;;4.20;99.90;3.80;98719.00;;;;5075872;28;20176;-75
2021/12/10 05:46:51;;;;;;;0.50;0.50;;;4.20;99.90;3.80;98685.00;;;;5059169;28;20245;-76
2021/12/10 05:49:20;;;;;;;0.60;0.60;;;4.20;99.90;4.00;98693.00;;;;5094068;28;20636;-77
2021/12/10 05:51:53;;;;;;;0.50;0.50;;;4.20;99.90;3.90;98723.00;;;;5075983;28;20193;-77
2021/12/10 05:54:19;;;;;;;0.63;0.63;;;4.20;99.90;4.20;98721.00;;;;5075667;28;20176;-77
2021/12/10 05:56:48;;;;;;;0.67;0.67;;;4.30;99.90;3.90;98674.00;;;;5075970;28;20176;-75
2021/12/10 05:59:14;;;;;;;0.60;0.60;;;4.20;99.90;3.60;98723.00;;;;5075938;28;20170;-78
2021/12/10 06:01:44;;;;;;;0.60;0.60;;;4.20;99.90;3.70;98718.00;;;;5070184;28;20189;-74
2021/12/10 06:04:13;;;;;;;0.67;0.67;;;4.10;99.90;3.80;98723.00;;;;5055563;28;20189;-74
2021/12/10 06:06:44;;;;;;;0.60;0.60;;;4.10;99.90;3.80;98722.00;;;;5055544;28;20189;-77
2021/12/10 06:09:16;;;;;;;0.60;0.60;;;4.20;99.90;3.70;98713.00;;;;5055545;28;20173;-78
2021/12/10 06:11:47;;;;;;;0.50;0.50;;;4.10;99.90;4.00;98717.00;;;;5055507;28;20274;-77
2021/12/10 06:14:16;;;;;;;0.63;0.63;;;4.20;99.90;3.70;98728.00;;;;5055693;28;20158;-79
2021/12/10 06:16:42;;;;;;;0.50;0.50;;;4.20;99.90;3.70;98709.00;;;;5055235;28;20234;-81
2021/12/10 06:19:14;;;;;;;0.57;0.57;;;4.10;99.90;3.90;98727.00;;;;5038771;28;20189;-78
2021/12/10 06:21:40;;;;;;;0.80;0.80;;;4.10;99.90;4.10;98710.00;;;;5055355;28;20185;-77
2021/12/10 06:24:07;;;;;;;0.50;0.50;;;4.20;99.90;3.80;98709.00;;;;5055446;28;20230;-77
2021/12/10 06:26:34;;;;;;;0.60;0.60;;;4.20;99.90;3.70;98713.00;;;;5038622;28;20547;-77
2021/12/10 06:29:03;;;;;;;0.53;0.53;;;4.10;99.90;3.90;98714.00;;;;5055366;28;20174;-78
2021/12/10 06:31:29;;;;;;;0.60;0.60;;;4.10;99.90;3.80;98672.00;;;;5057656;28;20194;-77
2021/12/10 06:33:56;;;;;;;1.10;1.03;;;4.10;99.90;3.80;98716.00;;;;5074929;28;20181;-78
2021/12/10 06:36:23;;;;;;;0.80;0.80;;;4.10;99.90;3.90;98722.00;;;;5093787;28;20683;-79
2021/12/10 06:38:49;;;;;;;0.50;0.50;;;4.10;99.90;3.70;98719.00;;;;5092006;28;20716;-79
2021/12/10 06:41:16;;;;;;;0.50;0.50;;;4.00;99.90;3.50;98705.00;;;;5093404;28;20173;-78
2021/12/10 06:43:43;;;;;;;0.60;0.60;;;4.00;99.90;3.50;98672.00;;;;5075306;28;20180;-79
2021/12/10 06:46:16;;;;;;;0.70;0.70;;;4.00;99.90;3.70;98675.00;;;;5058545;28;20184;-78
2021/12/10 06:48:42;;;;;;;1.10;1.10;;;4.00;99.90;3.60;98711.00;;;;5075469;28;20188;-79
2021/12/10 06:51:18;;;;;;;0.67;0.67;;;4.00;99.90;3.70;98723.00;;;;5075495;28;20177;-79
2021/12/10 06:53:45;;;;;;;0.60;0.60;;;4.00;99.90;3.60;98722.00;;;;5076814;28;20314;-78
2021/12/10 06:56:16;;;;;;;0.60;0.60;;;4.00;99.90;3.90;98693.00;;;;5062209;28;20172;-79
2021/12/10 06:58:43;;;;;;;0.50;0.50;;;4.10;99.90;3.60;98708.00;;;;5097180;28;20210;-78
2021/12/10 07:01:39;;;;;;;0.53;0.53;;;4.00;99.90;3.90;98717.00;;;;5095596;28;20543;-79
2021/12/10 07:04:12;;;;;;;0.60;0.60;;;4.10;99.90;3.70;98718.00;;;;5077012;28;20657;-79
2021/12/10 07:06:43;;;;;;;0.60;0.60;;;4.00;99.90;3.60;98707.00;;;;5079697;28;20161;-79
2021/12/10 07:09:20;;;;;;;0.70;0.70;;;4.00;99.90;3.50;98706.00;;;;5079264;28;20181;-79
2021/12/10 07:11:50;;;;;;;0.60;0.60;;;3.90;99.90;3.70;98666.00;;;;5096760;28;20254;-78
2021/12/10 07:14:16;;;;;;;0.80;0.80;;;4.00;99.90;3.20;98718.00;;;;5079083;28;20179;-76
2021/12/10 07:16:45;;;;;;;0.70;0.70;;;3.90;99.90;3.50;98719.00;;;;5061791;28;20196;-76
2021/12/10 07:19:11;;;;;;;0.73;0.73;;;3.90;99.90;3.80;98724.00;;;;5061907;28;20287;-76
2021/12/10 07:21:37;;;;;;;1.20;1.20;;;4.00;99.90;3.60;98712.00;;;;5078759;28;20293;-76
2021/12/10 07:24:12;;;;;;;0.80;0.80;;;3.90;99.90;3.70;98729.00;;;;5078568;28;20204;-76
2021/12/10 07:26:43;;;;;;;0.90;0.90;;;4.00;99.90;3.80;98733.00;;;;5078550;28;20176;-75
2021/12/10 07:29:10;;;;;;;0.60;0.60;;;4.00;99.90;3.90;98733.00;;;;5061886;28;20207;-75
2021/12/10 07:31:43;;;;;;;1.10;1.10;;;4.10;99.90;3.90;98732.00;;;;5077787;28;20200;-75
2021/12/10 07:34:12;;;;;;;0.93;0.80;;;4.10;99.90;4.00;98740.00;;;;5094768;28;20223;-75
2021/12/10 07:36:39;;;;;;;0.50;0.50;;;4.10;99.90;3.90;98730.00;;;;5073428;28;20238;-75
2021/12/10 07:39:11;;;;;;;0.83;0.83;;;4.10;99.90;3.90;98734.00;;;;5041222;28;20190;-75
2021/12/10 07:41:43;;;;;;;0.60;0.60;;;4.10;99.90;3.90;98740.00;;;;5058398;28;20198;-75
2021/12/10 07:44:10;;;;;;;0.80;0.80;;;4.20;99.90;3.70;98742.00;;;;5058713;28;20181;-74
2021/12/10 07:46:42;;;;;;;0.60;0.60;;;4.10;99.90;3.70;98742.00;;;;5041342;28;20186;-75
2021/12/10 07:49:16;;;;;;;0.97;0.97;;;4.00;99.90;3.60;98738.00;;;;5058237;28;20243;-75
2021/12/10 07:51:50;;;;;;;0.60;0.60;;;4.00;99.90;3.50;98742.00;;;;5041832;28;20288;-76
2021/12/10 07:54:19;;;;;;;0.70;0.70;;;3.90;99.90;3.30;98693.00;;;;5041603;28;20177;-76
2021/12/10 07:56:49;;;;;;;0.50;0.50;;;3.80;99.90;3.80;98743.00;;;;5058252;28;20165;-76
2021/12/10 07:59:18;;;;;;;0.70;0.70;;;3.90;99.90;3.80;98754.00;;;;5058108;28;20174;-77
2021/12/10 08:01:45;;;;;;;0.60;0.60;;;3.90;99.90;3.40;98743.00;;;;5058078;28;20288;-75
2021/12/10 08:04:11;;;;;;;0.97;0.97;;;3.90;99.90;3.50;98753.00;;;;5077648;28;20197;-75
2021/12/10 08:06:42;;;;;;;0.70;0.70;;;3.90;99.90;3.90;98755.00;;;;5078165;28;20179;-75
2021/12/10 08:09:14;;;;;;;0.70;0.70;;;3.90;99.90;3.30;98732.00;;;;5077591;28;20279;-75
2021/12/10 08:11:43;;;;;;;0.70;0.70;;;3.80;99.90;3.50;98716.00;;;;5060780;28;20201;-69
2021/12/10 08:14:14;;;;;;;0.90;0.90;;;3.70;99.90;3.50;98750.00;;;;5095765;28;20181;-69
2021/12/10 08:16:46;;;;;;;0.53;0.53;;;3.70;99.90;3.30;98757.00;;;;5077480;28;20260;-68
2021/12/10 08:19:13;;;;;;;0.90;0.90;;;3.70;99.90;3.60;98765.00;;;;5078000;28;20613;-70
2021/12/10 08:21:49;;;;;;;1.10;1.10;;;3.70;99.90;3.40;98755.00;;;;5077561;28;20221;-69
2021/12/10 08:24:15;;;;;;;0.70;0.70;;;3.80;99.90;3.50;98762.00;;;;5077170;28;20267;-70
2021/12/10 08:26:50;;;;;;;0.60;0.60;;;3.70;99.90;3.70;98778.00;;;;5077222;28;20208;-69
2021/12/10 08:29:22;;;;;;;0.50;0.50;;;3.80;99.90;3.60;98766.00;;;;5077446;28;20181;-70
2021/12/10 08:31:51;;;;;;;0.70;0.70;;;3.80;99.90;3.80;98763.00;;;;5077184;28;20266;-69
2021/12/10 08:34:24;;;;;;;0.73;0.73;;;3.80;99.90;4.10;98773.00;;;;5094134;28;20192;-70
2021/12/10 08:36:51;;;;;;;1.13;1.13;;;4.10;99.90;3.80;98739.00;;;;5093829;28;20252;-70
2021/12/10 08:39:23;;;;;;;0.60;0.60;;;4.00;99.90;3.60;98773.00;;;;5077148;28;20180;-69
2021/12/10 08:41:56;;;;;;;0.60;0.60;;;3.90;99.90;3.90;98774.00;;;;5065140;28;20197;-69
2021/12/10 08:44:27;;;;;;;1.33;1.33;;;3.90;99.90;3.40;98763.00;;;;5077184;28;20162;-69
2021/12/10 08:46:54;;;;;;;1.47;1.43;;;3.90;99.90;3.50;98774.00;;;;5076700;28;20621;-69
2021/12/10 08:49:28;;;;;;;0.50;0.50;;;3.70;99.90;3.20;98781.00;;;;5076979;28;20181;-69
2021/12/10 08:51:58;;;;;;;0.70;0.70;;;3.60;99.90;3.40;98769.00;;;;5076371;28;20664;-69
2021/12/10 08:54:30;;;;;;;0.70;0.70;;;3.70;99.90;3.80;98779.00;;;;5094588;28;20204;-69
2021/12/10 08:56:58;;;;;;;1.00;1.00;;;3.80;99.90;3.50;98780.00;;;;5076390;28;20185;-69
2021/12/10 08:59:28;;;;;;;0.60;0.60;;;3.80;99.90;3.50;98777.00;;;;5076783;28;20260;-69
2021/12/10 09:01:59;;;;;;;0.70;0.70;;;3.80;99.90;3.50;98786.00;;;;5093960;28;20204;-70
2021/12/10 09:04:32;;;;;;;0.70;0.70;;;3.80;99.90;3.90;98795.00;;;;5057488;28;20189;-76
2021/12/10 09:07:10;;;;;;;0.60;0.60;;;3.90;99.90;3.70;98799.00;;;;5041479;28;20231;-76
2021/12/10 09:09:43;;;;;;;0.80;0.80;;;3.80;99.90;4.10;98771.00;;;;5073457;28;20180;-75
2021/12/10 09:12:19;;;;;;;0.60;0.60;;;3.90;99.90;3.70;98750.00;;;;5056943;28;20201;-75
2021/12/10 09:15:00;;;;;;;0.80;0.80;;;3.90;99.90;3.90;98799.00;;;;5073340;28;20602;-75
2021/12/10 09:17:31;;;;;;;1.17;0.93;;;3.90;99.90;3.70;98816.00;;;;5073796;28;20641;-76
2021/12/10 09:20:06;;;;;;;0.67;0.67;;;4.00;99.90;4.20;98811.00;;;;5072769;28;20178;-76
2021/12/10 09:22:35;;;;;;;1.60;1.50;;;4.00;99.90;3.90;98813.00;;;;5055473;28;20638;-76
2021/12/10 09:25:05;;;;;;;1.13;1.13;;;4.00;99.90;3.80;98817.00;;;;5072343;28;20246;-77
2021/12/10 09:27:40;;;;;;;0.87;0.87;;;3.90;99.90;3.50;98812.00;;;;5094239;28;20177;-76
2021/12/10 09:30:10;;;;;;;0.83;0.83;;;3.80;99.90;3.50;98814.00;;;;5093157;28;20266;-77
2021/12/10 09:32:37;;;;;;;0.70;0.70;;;3.70;99.90;3.30;98836.00;;;;5073801;28;20755;-78
2021/12/10 09:35:13;;;;;;;0.70;0.70;;;3.70;99.90;3.30;98826.00;;;;5082563;28;20689;-77
2021/12/10 09:37:54;;;;;;;0.60;0.60;;;3.70;99.90;3.60;98830.00;;;;5055398;28;20192;-77
2021/12/10 09:40:33;;;;;;;0.83;0.83;;;3.70;99.90;4.00;98842.00;;;;5070854;28;20197;-77
2021/12/10 09:43:05;;;;;;;0.70;0.70;;;3.80;99.90;3.70;98846.00;;;;5055364;28;20197;-77
2021/12/10 09:45:39;;;;;;;0.70;0.70;;;3.90;99.90;3.80;98831.00;;;;5072009;28;20189;-76
2021/12/10 09:48:16;;;;;;;0.60;0.60;;;3.80;99.90;3.50;98842.00;;;;5062286;28;20193;-76
2021/12/10 09:51:11;;;;;;;0.50;0.50;;;3.70;99.90;3.40;98861.00;;;;5038558;28;20234;-76
2021/12/10 09:53:55;;;;;;;0.63;0.63;;;3.60;99.90;4.10;98850.00;;;;5073215;28;20220;-75
2021/12/10 09:56:24;;;;;;;0.70;0.70;;;3.90;99.90;4.40;98849.00;;;;5080349;28;20273;-76
2021/12/10 09:59:05;;;;;;;0.70;0.70;;;4.10;99.90;4.70;98864.00;;;;5068105;28;20625;-76
2021/12/10 10:01:46;;;;;;;0.70;0.70;;;4.40;99.90;4.20;98859.00;;;;5082949;28;20214;-76
2021/12/10 10:04:21;;;;;;;0.70;0.70;;;4.20;99.90;4.00;98860.00;;;;5055616;28;20185;-76
2021/12/10 10:07:01;;;;;;;1.00;1.00;;;4.10;99.90;4.00;98856.00;;;;5068755;28;20173;-76
2021/12/10 10:09:29;;;;;;;0.80;0.80;;;4.00;99.90;3.80;98860.00;;;;5089735;28;20212;-76
2021/12/10 10:12:08;;;;;;;1.10;1.10;;;3.90;99.90;4.40;98862.00;;;;5092207;28;20216;-76
2021/12/10 10:14:39;;;;;;;0.70;0.70;;;4.10;99.90;3.90;98871.00;;;;5065530;28;20181;-76
2021/12/10 10:17:10;;;;;;;0.60;0.60;;;4.20;99.90;4.10;98879.00;;;;5082863;28;20181;-76
2021/12/10 10:19:46;;;;;;;0.70;0.70;;;4.10;99.90;4.40;98878.00;;;;5081719;28;20184;-75
2021/12/10 10:33:25;;;;;;;0.40;0.40;;;3.30;99.90;3.10;98825.00;;;;5046695;28;20607;-72
2021/12/10 10:35:58;;;;;;;0.50;0.50;;;3.40;99.90;3.40;98864.00;;;;5045893;28;20210;-72
2021/12/10 10:38:26;;;;;;;1.37;1.37;;;3.50;99.90;3.90;98911.00;;;;5021793;28;20613;-70
2021/12/10 10:41:03;;;;;;;0.60;0.60;;;3.70;99.90;3.70;98907.00;;;;5010974;28;20218;-71
2021/12/10 10:43:32;;;;;;;1.57;1.53;;;3.60;99.90;3.90;98914.00;;;;5034096;28;20647;-71
2021/12/10 10:45:58;;;;;;;0.50;0.50;;;3.80;99.90;4.00;98911.00;;;;5042026;28;20659;-70
2021/12/10 10:48:25;;;;;;;0.60;0.60;;;3.80;99.90;3.40;98920.00;;;;5021714;28;20191;-70
2021/12/10 10:50:58;;;;;;;0.60;0.60;;;3.60;99.90;3.40;98920.00;;;;5019474;28;20187;-70
2021/12/10 10:53:31;;;;;;;0.70;0.70;;;3.50;99.90;4.30;98925.00;;;;5016856;28;20194;-70
2021/12/10 10:56:25;;;;;;;0.60;0.60;;;4.00;99.90;3.90;98914.00;;;;5018026;28;20290;-70
2021/12/10 10:59:04;;;;;;;0.80;0.80;;;3.90;99.90;4.60;98924.00;;;;5024885;28;20278;-70
2021/12/10 11:01:57;;;;;;;0.70;0.70;;;4.20;99.90;3.70;98924.00;;;;5042147;28;20637;-69
2021/12/10 11:04:38;;;;;;;0.70;0.70;;;4.10;99.90;3.50;98921.00;;;;5026130;28;20273;-71
2021/12/10 11:07:13;;;;;;;0.80;0.80;;;3.70;99.90;3.90;98912.00;;;;5024155;28;20184;-69
2021/12/10 11:10:02;;;;;;;0.90;0.90;;;3.70;99.90;3.90;98929.00;;;;5053436;28;20230;-74
2021/12/10 11:12:46;;;;;;;0.80;0.80;;;3.90;99.90;4.30;98924.00;;;;5045090;28;20786;-73
2021/12/10 11:15:33;;;;;;;0.70;0.70;;;4.00;99.90;4.20;98927.00;;;;5042179;28;20197;-74
2021/12/10 11:18:05;;;;;;;0.90;0.90;;;4.00;99.90;4.00;98940.00;;;;5024416;28;20229;-69
2021/12/10 11:20:42;;;;;;;0.90;0.90;;;4.00;99.90;3.80;98948.00;;;;5024718;28;20607;-73
2021/12/10 11:23:23;;;;;;;0.90;0.90;;;3.90;99.90;4.50;98895.00;;;;5024042;28;20188;-73
2021/12/10 11:26:03;;;;;;;0.90;0.90;;;4.00;99.90;4.50;98945.00;;;;5024420;28;20187;-73
2021/12/10 11:28:41;;;;;;;0.80;0.80;;;4.20;99.90;4.70;98939.00;;;;5025119;28;20191;-75
2021/12/10 11:31:26;;;;;;;0.80;0.80;;;4.40;99.90;5.20;98951.00;;;;5023959;28;20192;-75
2021/12/10 11:33:54;;;;;;;0.90;0.90;;;4.70;99.90;5.30;98949.00;;;;5039374;28;20196;-75
2021/12/10 11:36:36;;;;;;;0.80;0.80;;;4.90;99.90;5.20;98957.00;;;;5010002;28;20191;-71
2021/12/10 11:39:11;;;;;;;1.30;1.30;;;5.00;99.90;5.00;98949.00;;;;5024052;28;20654;-77
2021/12/10 11:41:44;;;;;;;0.80;0.80;;;4.90;99.90;5.10;98948.00;;;;5024244;28;20330;-77
2021/12/10 11:47:12;;;;;;;0.90;0.90;;;4.90;99.90;5.20;98965.00;;;;5014571;28;20191;-77
2021/12/10 11:49:45;;;;;;;0.90;0.90;;;4.80;99.90;5.10;98961.00;;;;5022844;28;20193;-78
2021/12/10 11:52:21;;;;;;;0.90;0.90;;;4.80;99.90;5.40;98930.00;;;;5004209;28;20191;-78
2021/12/10 11:55:06;;;;;;;1.10;1.10;;;5.00;99.90;4.80;98967.00;;;;5001459;28;20254;-78
2021/12/10 11:57:44;;;;;;;1.10;1.10;;;4.70;99.90;4.60;98993.00;;;;5012292;28;20184;-77
2021/12/10 12:00:25;;;;;;;0.80;0.80;;;4.70;99.90;4.60;98995.00;;;;5024168;28;20188;-77